Time;durP1;ratioP1;P1;durP2;ratioP2;P2;SDS_P1;SDS_P2;PMS_P1;PMS_P2;Temp;Humidity;BMP_temperature;BMP_pressure;BME280_temperature;BME280_humidity;BME280_pressure;Samples;Min_cycle;Max_cycle;Signal;HPM_P1;HPM_P2
2022/03/09 07:15:15;;;;;;;11.67;6.37;;;;;;;-4.58;99.15;99775.00;5088989;27;20348;-77
2022/03/09 07:17:42;;;;;;;12.50;6.25;;;;;;;-4.52;99.08;99765.91;5085681;28;20415;-77
2022/03/09 07:20:10;;;;;;;23.40;7.37;;;;;;;-4.32;98.92;99770.22;5091459;28;20410;-77
2022/03/09 07:22:36;;;;;;;16.53;7.50;;;;;;;-4.21;98.28;99759.09;5087335;28;20040;-78
2022/03/09 07:25:03;;;;;;;16.60;7.53;;;;;;;-3.94;96.29;99772.78;5086981;28;20475;-80
2022/03/09 07:27:30;;;;;;;26.77;7.50;;;;;;;-3.64;95.04;99786.28;5088273;28;20553;-80
2022/03/09 07:29:57;;;;;;;15.00;7.00;;;;;;;-3.56;93.88;99769.94;5086551;28;20040;-80
2022/03/09 07:32:25;;;;;;;17.23;6.53;;;;;;;-3.15;93.28;99771.31;5088498;28;20132;-80
2022/03/09 07:34:51;;;;;;;12.67;5.37;;;;;;;-2.57;88.84;99775.25;5086825;28;20048;-80
2022/03/09 07:37:18;;;;;;;12.33;4.50;;;;;;;-2.03;85.28;99769.47;5087686;28;20051;-80
2022/03/09 07:39:45;;;;;;;13.90;4.90;;;;;;;-1.77;83.36;99749.28;5088663;28;20052;-80
2022/03/09 07:42:12;;;;;;;10.37;4.77;;;;;;;-1.37;80.93;99762.00;5087242;28;20058;-80
2022/03/09 07:44:38;;;;;;;9.03;5.10;;;;;;;-1.05;80.99;99768.00;5086748;28;20044;-80
2022/03/09 07:47:05;;;;;;;13.93;5.10;;;;;;;-0.95;79.25;99750.47;5087283;28;20119;-80
2022/03/09 07:49:33;;;;;;;13.27;5.70;;;;;;;-0.67;78.24;99761.19;5087157;28;20470;-81
2022/03/09 07:52:02;;;;;;;10.77;4.90;;;;;;;-0.66;77.93;99757.56;5085976;28;20487;-81
2022/03/09 07:54:29;;;;;;;11.13;5.17;;;;;;;-0.37;76.90;99790.41;5086449;28;20316;-81
2022/03/09 07:56:57;;;;;;;14.53;4.70;;;;;;;-0.31;75.07;99786.47;5086795;28;20048;-81
2022/03/09 07:59:25;;;;;;;11.20;5.23;;;;;;;-0.16;72.10;99795.31;5090353;28;20164;-81
2022/03/09 08:01:52;;;;;;;16.10;5.50;;;;;;;-0.06;73.74;99794.59;5091735;28;20479;-81
2022/03/09 08:04:20;;;;;;;12.27;5.93;;;;;;;0.01;71.71;99778.16;5079746;28;20056;-81
2022/03/09 08:06:49;;;;;;;13.10;5.53;;;;;;;0.07;71.93;99780.41;5066575;28;20045;-81
2022/03/09 08:09:16;;;;;;;15.68;5.65;;;;;;;0.31;71.08;99791.25;5073380;28;20049;-81
2022/03/09 08:11:43;;;;;;;31.53;5.93;;;;;;;0.41;72.46;99781.66;5076711;28;20423;-81
2022/03/09 08:14:12;;;;;;;22.37;5.63;;;;;;;0.54;68.53;99778.97;5073458;28;20431;-81
2022/03/09 08:16:39;;;;;;;88.40;8.77;;;;;;;0.65;68.72;99776.44;5073290;28;20036;-81
2022/03/09 08:19:06;;;;;;;195.13;13.80;;;;;;;0.83;67.77;99782.31;5087494;28;20049;-81
2022/03/09 08:21:33;;;;;;;109.60;10.02;;;;;;;0.92;66.97;99788.84;5080842;28;20045;-81
2022/03/09 08:24:01;;;;;;;14.77;5.50;;;;;;;0.92;66.19;99767.44;5068041;28;20076;-80
2022/03/09 08:26:27;;;;;;;14.27;5.47;;;;;;;1.03;65.79;99774.69;5073545;28;20036;-80
2022/03/09 08:28:54;;;;;;;10.97;5.57;;;;;;;1.10;67.25;99759.03;5060609;28;20045;-80
2022/03/09 08:31:21;;;;;;;14.85;5.38;;;;;;;1.17;67.67;99754.97;5055528;28;20052;-81
2022/03/09 08:33:48;;;;;;;11.00;5.93;;;;;;;1.30;66.75;99758.47;5070747;28;20044;-79
2022/03/09 08:36:14;;;;;;;10.55;5.70;;;;;;;1.47;64.26;99762.59;5054669;28;20049;-79
2022/03/09 08:38:41;;;;;;;9.47;5.90;;;;;;;1.62;62.77;99771.34;5061165;28;20056;-80
2022/03/09 08:41:09;;;;;;;10.43;5.35;;;;;;;1.68;61.91;99759.31;5063418;28;20094;-79
2022/03/09 08:43:35;;;;;;;11.40;6.45;;;;;;;1.87;60.92;99766.84;5068293;28;20523;-79
2022/03/09 08:46:02;;;;;;;11.40;5.63;;;;;;;1.87;61.39;99750.78;5065514;28;20053;-80
2022/03/09 08:48:28;;;;;;;15.38;5.78;;;;;;;2.02;60.35;99751.41;5057101;28;20063;-79
2022/03/09 08:50:55;;;;;;;12.88;6.22;;;;;;;2.08;60.66;99756.34;5058273;28;20053;-79
2022/03/09 08:53:23;;;;;;;34.60;7.30;;;;;;;2.13;60.69;99752.31;5051840;28;20573;-79
2022/03/09 08:55:50;;;;;;;11.80;6.20;;;;;;;2.32;61.40;99750.06;5052800;28;20340;-79
2022/03/09 08:58:18;;;;;;;16.48;6.10;;;;;;;2.34;59.91;99754.34;5052948;28;20053;-79
2022/03/09 09:00:45;;;;;;;16.30;6.25;;;;;;;2.48;60.22;99761.31;5060222;28;20045;-79
2022/03/09 09:03:11;;;;;;;12.20;5.65;;;;;;;2.32;58.75;99753.63;5052946;28;20230;-79
2022/03/09 09:05:38;;;;;;;10.68;6.10;;;;;;;2.38;60.25;99752.25;5069121;28;20055;-81
2022/03/09 09:08:05;;;;;;;12.55;5.22;;;;;;;2.56;59.88;99758.91;5058963;28;20076;-79
2022/03/09 09:10:33;;;;;;;10.07;6.10;;;;;;;2.64;60.41;99769.06;5064193;28;20052;-79
2022/03/09 09:13:00;;;;;;;14.63;5.68;;;;;;;2.64;58.91;99743.06;5064273;28;20079;-79
2022/03/09 09:15:29;;;;;;;13.57;6.32;;;;;;;2.62;58.47;99744.13;5060946;28;20048;-79
2022/03/09 09:17:59;;;;;;;8.73;5.70;;;;;;;2.59;58.13;99752.44;5059018;28;20052;-79
2022/03/09 09:20:26;;;;;;;17.08;6.32;;;;;;;2.60;58.35;99754.16;5066713;28;20063;-79
2022/03/09 09:22:53;;;;;;;12.93;6.25;;;;;;;2.57;58.27;99754.38;5065548;28;20044;-79
2022/03/09 09:25:20;;;;;;;12.50;6.45;;;;;;;2.60;57.25;99754.16;5050095;28;20049;-79
2022/03/09 09:27:47;;;;;;;10.45;5.53;;;;;;;2.58;56.91;99751.59;5055383;28;20049;-79
2022/03/09 09:30:14;;;;;;;14.60;6.95;;;;;;;2.65;57.46;99744.78;5050987;28;20053;-79
2022/03/09 09:32:42;;;;;;;9.50;6.13;;;;;;;2.82;57.09;99753.34;5057885;28;20052;-79
2022/03/09 09:35:10;;;;;;;11.07;6.72;;;;;;;2.85;56.31;99750.41;5062212;28;20067;-79
2022/03/09 09:37:37;;;;;;;16.00;6.68;;;;;;;3.07;54.85;99754.06;5062122;28;20048;-79
2022/03/09 09:40:06;;;;;;;14.23;7.13;;;;;;;3.14;55.19;99753.44;5051676;28;20385;-79
2022/03/09 09:42:33;;;;;;;10.90;6.40;;;;;;;3.31;55.75;99740.47;5058351;28;20067;-79
2022/03/09 09:45:00;;;;;;;25.95;6.15;;;;;;;3.43;54.30;99752.06;5052117;28;20060;-79
2022/03/09 09:47:28;;;;;;;18.75;5.97;;;;;;;3.53;56.24;99751.19;5064989;28;20041;-79
2022/03/09 09:49:56;;;;;;;13.15;6.55;;;;;;;3.63;53.07;99745.06;5060891;28;20049;-78
2022/03/09 09:52:25;;;;;;;14.23;6.13;;;;;;;3.72;53.45;99752.41;5066714;28;20450;-79
2022/03/09 09:54:55;;;;;;;10.65;6.53;;;;;;;3.80;52.61;99741.84;5053456;28;20400;-78
2022/03/09 09:57:21;;;;;;;12.60;6.38;;;;;;;3.94;53.75;99747.91;5071311;28;20059;-79
2022/03/09 09:59:48;;;;;;;15.77;7.07;;;;;;;4.14;51.71;99749.78;5054750;28;20507;-79
2022/03/09 10:02:15;;;;;;;10.00;5.85;;;;;;;4.24;51.26;99749.84;5053451;28;20053;-79
2022/03/09 10:04:44;;;;;;;10.48;6.28;;;;;;;4.32;51.47;99754.59;5053173;28;20118;-79
2022/03/09 10:07:12;;;;;;;14.02;5.63;;;;;;;4.31;50.67;99755.59;5067013;28;20045;-79
2022/03/09 10:09:40;;;;;;;13.05;6.20;;;;;;;4.18;50.00;99742.31;5051272;28;20506;-79
2022/03/09 10:12:08;;;;;;;14.07;6.50;;;;;;;4.36;48.31;99750.66;5052884;28;20064;-79
2022/03/09 10:14:43;;;;;;;12.05;6.38;;;;;;;4.33;48.88;99742.84;5056358;28;20402;-79
2022/03/09 10:17:12;;;;;;;16.33;6.72;;;;;;;4.17;49.20;99740.59;5051574;28;20540;-79
2022/03/09 10:19:39;;;;;;;11.23;5.75;;;;;;;4.30;49.99;99759.25;5057082;28;20100;-79
2022/03/09 10:22:30;;;;;;;13.55;6.13;;;;;;;4.46;51.61;99753.41;5055385;28;20059;-80
2022/03/09 10:24:59;;;;;;;11.43;6.05;;;;;;;4.45;50.22;99736.41;5061889;28;20072;-79
2022/03/09 10:27:35;;;;;;;13.93;7.28;;;;;;;4.56;50.46;99748.94;5066493;28;20407;-79
2022/03/09 10:30:02;;;;;;;12.70;6.43;;;;;;;4.72;51.30;99743.09;5068495;28;20044;-79
2022/03/09 10:32:50;;;;;;;22.08;6.47;;;;;;;4.83;48.86;99748.38;5058861;28;20438;-79
2022/03/09 10:35:21;;;;;;;11.30;6.95;;;;;;;4.88;46.94;99748.00;5059153;28;20052;-79
2022/03/09 10:37:49;;;;;;;12.90;6.30;;;;;;;4.91;47.29;99751.28;5061492;28;20492;-79
2022/03/09 10:40:18;;;;;;;18.33;8.20;;;;;;;5.05;44.97;99735.75;5058837;28;20048;-79
2022/03/09 10:42:45;;;;;;;18.05;7.97;;;;;;;5.13;44.18;99758.34;5050924;28;20493;-80
2022/03/09 10:45:13;;;;;;;14.60;7.50;;;;;;;5.04;44.55;99740.25;5058943;28;20071;-80
2022/03/09 10:47:42;;;;;;;13.18;7.25;;;;;;;5.13;43.83;99749.38;5057026;28;20044;-80
2022/03/09 10:50:10;;;;;;;16.48;7.88;;;;;;;5.14;43.80;99746.56;5059381;28;20048;-80
2022/03/09 10:52:47;;;;;;;15.55;7.13;;;;;;;5.30;42.03;99748.75;5061599;28;20044;-80
2022/03/09 10:55:26;;;;;;;13.07;8.15;;;;;;;5.28;41.19;99748.03;5054156;28;20040;-80
2022/03/09 10:57:54;;;;;;;15.93;7.97;;;;;;;5.39;42.00;99751.59;5059182;28;20128;-80
2022/03/09 11:00:38;;;;;;;15.93;7.55;;;;;;;5.51;42.69;99739.75;5060075;28;20088;-81
2022/03/09 11:03:09;;;;;;;14.00;6.90;;;;;;;5.77;44.00;99747.31;5060529;28;20040;-80
2022/03/09 11:05:36;;;;;;;13.48;6.90;;;;;;;5.85;44.44;99742.03;5062504;28;20044;-80
2022/03/09 11:08:04;;;;;;;14.65;8.30;;;;;;;5.96;41.70;99730.25;5062910;28;20041;-80
2022/03/09 11:10:33;;;;;;;16.30;7.43;;;;;;;6.12;43.02;99730.59;5070147;28;20041;-80
2022/03/09 11:12:59;;;;;;;18.83;7.90;;;;;;;6.15;42.02;99726.75;5059284;28;20057;-80
2022/03/09 11:15:27;;;;;;;15.43;7.57;;;;;;;6.16;41.47;99741.97;5061945;28;20399;-81
2022/03/09 11:17:54;;;;;;;18.40;8.45;;;;;;;6.33;41.61;99738.53;5058006;28;20049;-81
2022/03/09 11:20:21;;;;;;;14.48;7.50;;;;;;;6.58;42.51;99722.72;5064097;28;20036;-81
2022/03/09 11:22:47;;;;;;;16.08;7.70;;;;;;;6.53;41.69;99723.16;5054860;28;20052;-80
2022/03/09 11:25:14;;;;;;;14.85;7.68;;;;;;;6.69;41.77;99716.31;5057751;28;20052;-80
2022/03/09 11:27:49;;;;;;;13.60;7.22;;;;;;;6.68;41.91;99712.72;5050959;28;20121;-80
2022/03/09 11:30:24;;;;;;;18.55;7.82;;;;;;;6.81;41.28;99723.22;5055719;28;20044;-81
2022/03/09 11:32:51;;;;;;;13.55;6.90;;;;;;;7.07;43.36;99718.00;5058189;28;20053;-80
2022/03/09 11:35:37;;;;;;;18.80;8.43;;;;;;;7.25;41.16;99717.22;5049598;28;20049;-81
2022/03/09 11:38:25;;;;;;;13.23;7.45;;;;;;;7.32;41.68;99704.81;5050883;28;20511;-81
2022/03/09 11:41:16;;;;;;;14.18;7.82;;;;;;;7.44;40.88;99711.69;5049937;28;20068;-80
2022/03/09 11:43:45;;;;;;;18.10;8.70;;;;;;;7.49;40.85;99705.00;5050925;28;20041;-80
2022/03/09 11:46:11;;;;;;;13.23;7.40;;;;;;;7.58;40.55;99699.50;5058939;28;20048;-81
2022/03/09 11:48:50;;;;;;;16.08;7.22;;;;;;;7.97;40.80;99709.22;5059063;28;20518;-81
2022/03/09 11:51:17;;;;;;;16.98;7.75;;;;;;;8.05;38.60;99703.03;5058390;28;20084;-81
2022/03/09 11:53:50;;;;;;;14.88;7.95;;;;;;;8.20;38.68;99701.44;5065931;28;20083;-80
2022/03/09 11:56:35;;;;;;;13.38;7.40;;;;;;;8.36;37.78;99691.78;5055329;28;20059;-79
2022/03/09 11:59:11;;;;;;;24.20;12.50;;;;;;;8.66;37.35;99693.19;5054760;28;20065;-81
2022/03/09 12:02:23;;;;;;;23.65;8.75;;;;;;;8.70;36.95;99689.13;5053189;28;20049;-81
2022/03/09 12:04:56;;;;;;;17.13;8.40;;;;;;;8.44;35.77;99684.56;5063873;28;20048;-80
2022/03/09 12:07:46;;;;;;;13.20;7.80;;;;;;;8.66;37.15;99690.50;5070875;28;20052;-80
2022/03/09 12:10:13;;;;;;;;;;;;;;;8.91;35.58;99683.31;5062027;28;20496;-80
2022/03/09 12:13:11;;;;;;;16.13;8.50;;;;;;;9.15;36.56;99679.91;5061973;28;19920;-80
2022/03/09 12:16:00;;;;;;;14.40;7.70;;;;;;;9.02;32.56;99669.50;5059530;28;20036;-80
2022/03/09 12:18:34;;;;;;;12.63;7.38;;;;;;;9.17;33.86;99666.19;5057125;28;20053;-80
2022/03/09 12:21:01;;;;;;;16.50;7.45;;;;;;;9.44;32.47;99667.78;5063101;28;20044;-81
2022/03/09 12:23:27;;;;;;;18.50;8.88;;;;;;;9.62;31.67;99662.25;5060580;28;20049;-79
2022/03/09 12:25:56;;;;;;;21.55;8.00;;;;;;;9.69;31.31;99663.25;5066264;28;20048;-80
2022/03/09 12:28:47;;;;;;;15.65;8.02;;;;;;;9.86;30.94;99658.72;5066095;28;20048;-80
2022/03/09 12:31:23;;;;;;;16.77;8.38;;;;;;;9.91;30.22;99664.47;5069894;28;20045;-80
2022/03/09 12:33:52;;;;;;;15.15;7.95;;;;;;;9.89;32.58;99655.66;5069498;28;20140;-80
2022/03/09 12:36:20;;;;;;;17.43;8.93;;;;;;;9.99;31.60;99644.63;5062838;28;20048;-81
2022/03/09 12:38:49;;;;;;;13.90;8.13;;;;;;;9.97;31.45;99654.81;5055679;28;20056;-80
2022/03/09 12:41:30;;;;;;;11.80;7.22;;;;;;;9.81;31.26;99649.38;5063353;28;20057;-80
2022/03/09 12:43:59;;;;;;;21.83;7.85;;;;;;;10.01;31.93;99647.16;5070242;28;20055;-81
2022/03/09 12:46:27;;;;;;;16.67;8.20;;;;;;;10.22;32.11;99646.66;5059835;28;20076;-81
2022/03/09 12:49:01;;;;;;;19.70;8.20;;;;;;;10.25;30.30;99640.88;5072313;28;20060;-80
2022/03/09 12:51:28;;;;;;;14.65;7.95;;;;;;;10.24;30.08;99626.44;5065167;28;20095;-81
2022/03/09 12:53:55;;;;;;;16.85;8.90;;;;;;;10.46;29.75;99643.09;5067850;28;20075;-81
2022/03/09 12:56:23;;;;;;;14.50;7.72;;;;;;;10.49;29.12;99634.56;5061400;28;20049;-81
2022/03/09 12:58:51;;;;;;;13.88;7.50;;;;;;;10.45;28.12;99631.38;5053879;28;20056;-81
2022/03/09 13:01:19;;;;;;;14.57;7.95;;;;;;;10.46;27.69;99634.94;5061724;28;20113;-81
2022/03/09 13:03:47;;;;;;;15.35;7.97;;;;;;;10.27;27.38;99631.53;5054475;28;20492;-81
2022/03/09 13:06:23;;;;;;;12.45;7.10;;;;;;;10.50;27.69;99625.41;5065398;28;20045;-81
2022/03/09 13:08:50;;;;;;;12.90;7.93;;;;;;;10.84;28.37;99642.47;5065201;28;20094;-81
2022/03/09 13:11:27;;;;;;;16.63;8.48;;;;;;;10.91;31.09;99643.47;5058332;28;20053;-81
2022/03/09 13:13:54;;;;;;;16.60;8.27;;;;;;;10.79;28.33;99638.44;5067487;28;20044;-81
2022/03/09 13:16:25;;;;;;;21.42;7.72;;;;;;;10.58;28.49;99640.84;5056356;28;20400;-81
2022/03/09 13:18:55;;;;;;;21.17;8.15;;;;;;;10.15;28.14;99634.78;5070337;28;20094;-82
2022/03/09 13:21:24;;;;;;;21.52;7.93;;;;;;;10.47;27.70;99643.94;5058114;28;20041;-81
2022/03/09 13:23:51;;;;;;;22.10;7.80;;;;;;;10.60;28.53;99634.22;5059778;28;20056;-81
2022/03/09 13:26:20;;;;;;;17.50;6.97;;;;;;;10.96;29.76;99635.66;5069918;28;20295;-81
2022/03/09 13:28:48;;;;;;;14.32;7.00;;;;;;;11.07;28.70;99629.81;5054266;28;20045;-81
2022/03/09 13:31:16;;;;;;;19.48;7.47;;;;;;;11.10;28.47;99631.34;5051443;28;20080;-82
2022/03/09 13:33:43;;;;;;;11.73;6.47;;;;;;;11.19;29.12;99632.16;5066280;28;20131;-82
2022/03/09 13:36:14;;;;;;;13.80;7.72;;;;;;;11.31;29.54;99637.00;5063334;28;20041;-82
2022/03/09 13:38:43;;;;;;;13.70;7.38;;;;;;;11.18;29.01;99620.41;5064320;28;20094;-82
2022/03/09 13:41:10;;;;;;;18.23;7.97;;;;;;;11.39;28.13;99627.13;5062603;28;20040;-82
2022/03/09 13:43:38;;;;;;;12.43;6.90;;;;;;;11.26;27.06;99622.25;5060233;28;20085;-82
2022/03/09 13:46:14;;;;;;;15.27;7.68;;;;;;;11.16;27.28;99623.31;5061677;28;20048;-82
2022/03/09 13:48:41;;;;;;;14.30;7.43;;;;;;;11.25;28.66;99628.72;5051634;28;20037;-82
2022/03/09 13:51:09;;;;;;;13.18;7.18;;;;;;;11.37;27.72;99601.97;5065597;28;20056;-82
2022/03/09 13:53:37;;;;;;;15.63;7.25;;;;;;;11.39;28.77;99622.50;5061632;28;20045;-82
2022/03/09 13:56:16;;;;;;;12.95;7.05;;;;;;;11.26;27.72;99614.06;5058953;28;20515;-82
2022/03/09 13:58:42;;;;;;;16.48;7.20;;;;;;;11.22;27.71;99594.53;5060834;28;20076;-82
2022/03/09 14:01:11;;;;;;;15.07;8.60;;;;;;;11.36;27.89;99605.69;5065471;28;20052;-82
2022/03/09 14:03:42;;;;;;;15.40;7.82;;;;;;;11.46;29.33;99590.81;5066525;28;20534;-82
2022/03/09 14:06:15;;;;;;;11.93;7.20;;;;;;;11.60;29.28;99601.97;5053839;28;20041;-82
2022/03/09 14:08:42;;;;;;;14.48;6.70;;;;;;;11.39;27.81;99589.84;5064803;28;20049;-82
2022/03/09 14:11:13;;;;;;;15.93;8.18;;;;;;;11.42;28.07;99583.19;5058620;28;20403;-82
2022/03/09 14:13:55;;;;;;;18.40;7.85;;;;;;;11.50;27.81;99589.44;5062682;28;20056;-82
2022/03/09 14:16:22;;;;;;;18.23;7.43;;;;;;;11.58;28.12;99585.81;5069712;28;20048;-82
2022/03/09 14:18:48;;;;;;;15.23;8.38;;;;;;;11.72;28.89;99589.63;5055452;28;20071;-82
2022/03/09 14:21:16;;;;;;;14.60;8.07;;;;;;;11.78;27.95;99575.25;5061030;28;20055;-82
2022/03/09 14:23:45;;;;;;;14.57;7.80;;;;;;;11.98;28.96;99575.66;5056932;28;20048;-82
2022/03/09 14:26:12;;;;;;;14.37;7.90;;;;;;;11.89;27.70;99571.25;5060711;28;20052;-82
2022/03/09 14:28:38;;;;;;;14.25;7.55;;;;;;;11.91;27.24;99568.34;5051116;28;20796;-83
2022/03/09 14:31:05;;;;;;;61.95;15.60;;;;;;;11.85;27.54;99564.50;5059490;28;20056;-82
2022/03/09 14:33:32;;;;;;;15.20;7.47;;;;;;;12.10;28.22;99567.84;5058426;28;20063;-82
2022/03/09 14:35:59;;;;;;;12.52;7.63;;;;;;;12.21;26.92;99572.03;5051579;28;20037;-82
2022/03/09 14:38:27;;;;;;;27.75;8.60;;;;;;;12.15;27.67;99567.31;5058666;28;20132;-82
2022/03/09 14:40:54;;;;;;;17.17;8.00;;;;;;;12.19;27.26;99576.81;5057706;28;20045;-83
2022/03/09 14:43:21;;;;;;;15.82;8.57;;;;;;;12.18;27.01;99569.69;5059617;28;20127;-83
2022/03/09 14:45:47;;;;;;;13.63;8.00;;;;;;;12.24;28.24;99566.22;5061138;28;20452;-83
2022/03/09 14:48:17;;;;;;;16.45;8.15;;;;;;;12.16;27.54;99560.81;5060563;28;20052;-83
2022/03/09 14:50:44;;;;;;;18.67;9.32;;;;;;;12.14;27.17;99563.75;5061364;28;20456;-83
2022/03/09 14:53:15;;;;;;;19.42;8.88;;;;;;;12.09;27.16;99548.97;5053196;28;20055;-83
2022/03/09 14:56:15;;;;;;;22.08;8.48;;;;;;;12.17;27.42;99557.09;5057818;28;20444;-83
2022/03/09 14:58:43;;;;;;;;;;;;;;;12.05;26.77;99559.41;5053664;28;20048;-84
2022/03/09 15:01:10;;;;;;;20.35;8.73;;;;;;;12.01;27.15;99560.78;5056925;28;19974;-85
2022/03/09 15:03:39;;;;;;;18.15;9.07;;;;;;;11.99;28.03;99555.53;5053857;28;20047;-82
2022/03/09 15:06:06;;;;;;;15.48;8.75;;;;;;;12.09;28.37;99552.56;5062580;28;20048;-82
2022/03/09 15:08:33;;;;;;;16.90;8.23;;;;;;;11.94;27.64;99543.50;5064527;28;20040;-82
2022/03/09 15:11:02;;;;;;;20.70;9.50;;;;;;;11.90;28.17;99545.72;5063907;28;20053;-82
2022/03/09 15:13:29;;;;;;;17.63;8.80;;;;;;;11.87;26.95;99541.47;5065240;28;20494;-82
2022/03/09 15:15:56;;;;;;;17.92;8.13;;;;;;;11.93;27.15;99552.72;5058767;28;20081;-82
2022/03/09 15:18:23;;;;;;;19.50;9.45;;;;;;;11.96;27.56;99544.16;5075383;28;20134;-78
2022/03/09 15:20:50;;;;;;;14.65;8.38;;;;;;;12.01;28.04;99539.00;5055870;28;20534;-83
2022/03/09 15:23:17;;;;;;;17.77;8.10;;;;;;;11.99;27.06;99555.53;5050682;28;20079;-82
2022/03/09 15:25:44;;;;;;;12.75;7.90;;;;;;;12.06;26.66;99552.94;5059328;28;20056;-83
2022/03/09 15:28:17;;;;;;;16.05;8.13;;;;;;;11.90;28.21;99545.72;5060211;28;20094;-81
2022/03/09 15:30:44;;;;;;;15.32;8.15;;;;;;;11.61;27.09;99524.69;5058910;28;20049;-80
2022/03/09 15:33:11;;;;;;;14.07;7.65;;;;;;;11.72;27.01;99550.66;5070130;28;20407;-82
2022/03/09 15:35:37;;;;;;;14.93;7.97;;;;;;;11.74;27.00;99543.97;5060337;28;20053;-82
2022/03/09 15:38:04;;;;;;;13.82;7.97;;;;;;;11.63;27.43;99550.69;5069788;28;20056;-82
2022/03/09 15:40:31;;;;;;;18.02;8.35;;;;;;;11.56;27.01;99524.38;5063615;28;20044;-82
2022/03/09 15:42:57;;;;;;;19.52;8.80;;;;;;;11.60;27.43;99553.78;5066258;28;20049;-81
2022/03/09 15:45:26;;;;;;;17.05;9.15;;;;;;;11.52;27.94;99546.53;5056452;28;20048;-82
2022/03/09 15:47:53;;;;;;;16.90;8.70;;;;;;;11.57;27.29;99545.97;5061395;28;20052;-82
2022/03/09 15:50:19;;;;;;;21.15;9.35;;;;;;;11.42;27.60;99555.97;5055176;28;20075;-82
2022/03/09 15:52:46;;;;;;;17.15;8.88;;;;;;;11.31;27.30;99557.25;5059335;28;20045;-82
2022/03/09 15:55:13;;;;;;;15.48;8.55;;;;;;;11.18;28.15;99537.94;5058711;28;20484;-82
2022/03/09 15:57:39;;;;;;;14.15;7.72;;;;;;;11.05;28.35;99542.09;5059531;28;20114;-82
2022/03/09 16:00:07;;;;;;;17.98;7.82;;;;;;;11.33;27.69;99550.56;5063333;28;20056;-82
2022/03/09 16:02:40;;;;;;;13.13;8.40;;;;;;;11.13;28.06;99552.09;5060126;28;20052;-82
2022/03/09 16:05:09;;;;;;;21.70;9.55;;;;;;;11.04;28.85;99554.00;5062673;28;20140;-82
2022/03/09 16:07:36;;;;;;;19.50;8.98;;;;;;;11.03;27.82;99555.00;5068888;28;20103;-82
2022/03/09 16:10:03;;;;;;;20.13;9.10;;;;;;;10.92;28.04;99537.22;5060944;28;20049;-82
2022/03/09 16:12:34;;;;;;;17.75;7.78;;;;;;;10.85;28.83;99543.56;5058062;28;20053;-82
2022/03/09 16:15:03;;;;;;;18.88;8.75;;;;;;;10.85;28.54;99559.88;5062855;28;20053;-82
2022/03/09 16:17:30;;;;;;;16.20;8.43;;;;;;;10.79;28.45;99559.56;5050860;28;20041;-82
2022/03/09 16:19:58;;;;;;;16.45;7.95;;;;;;;10.44;28.50;99560.88;5051473;28;20681;-82
2022/03/09 16:22:24;;;;;;;15.82;8.45;;;;;;;10.38;28.76;99545.28;5056851;28;20044;-82
2022/03/09 16:24:52;;;;;;;14.23;8.02;;;;;;;10.39;29.48;99558.69;5064473;28;20095;-82
2022/03/09 16:27:19;;;;;;;16.38;8.43;;;;;;;10.26;29.34;99556.47;5052349;28;20194;-82
2022/03/09 16:29:46;;;;;;;14.35;8.20;;;;;;;10.22;29.76;99563.28;5050864;28;20045;-82
2022/03/09 16:32:15;;;;;;;15.38;8.15;;;;;;;9.96;29.83;99547.19;5050008;28;20053;-82
2022/03/09 16:34:42;;;;;;;16.60;9.15;;;;;;;9.94;29.42;99551.94;5057741;28;20468;-82
2022/03/09 16:37:10;;;;;;;19.85;8.40;;;;;;;9.91;30.11;99574.84;5058785;28;20048;-84
2022/03/09 16:39:40;;;;;;;13.40;7.47;;;;;;;9.80;30.29;99574.34;5064441;28;20048;-83
2022/03/09 16:42:07;;;;;;;17.73;8.05;;;;;;;9.75;29.99;99564.00;5068055;28;20499;-83
